الصفحة الرئيسية
METAR-TAF:

METAR-TAF

مطار :

Rock Springs - Sweetwater County Airport

Rock Springs, وايومنغ, الولايات المتحدة

دائرة عرض: 41-35-39N, خط طول: 109-03-55W, ارتفاع: 2060 متر

مراقبة الطقس الحالي

تاريخ ووقت الإصدار 42 دقيقة قبل الساعة 01:54UTC
ريح 9 عقدة من الجنوب/الجنوب الغربي
درجة الحرارة 23°درجة مئوية
الرطوبة 15%
ضغط 1016 hPa
الرؤية: 16.1 كم
سماء صافية

METAR: KRKS 260154Z AUTO 20009KT 10SM CLR 23/M05 A3001 RMK AO2 SLP084 T02281050

زمن: 20:36 (02:36 UTC)

توقعات

تاريخ ووقت الإصدار 3ساعات و 9 دقيقة قبل الساعة 23:27UTC
التوقعات صالحة من26 الساعة 00 UTC إلى 26 الساعة 24 UTC
ريح 12 عقدة من الجنوب/الجنوب الغربي تتزايد حتى 20 عقدة
الرؤية: 10 كم
غيوم قليلة على ارتفاع 8000 قدم
من 26 الساعة 0100 UTC
ريح 9 عقدة من الجنوب
الرؤية: 10 كم
سماء صافية
من 26 الساعة 1900 UTC
ريح 15 عقدة من الجنوب تتزايد حتى 25 عقدة
الرؤية: 10 كم
سماء صافية

TAF: KRKS 252327Z 2600/2624 20012G20KT P6SM FEW080 FM260100 18009KT P6SM SKC FM261900 19015G25KT P6SM SKC

أرصاد الطقس والتوقعات من أكثر من 4000 مطار (تقارير الطقس للمطار METAR والتنبؤ بالطقس بالمطارTAF).

المحطات المتاحة هي النقط الصفراء والحمراء على الخريطة.

حرك المؤشر فوق النقطة لمعرفة اسم المحطة.

ثم انقر لمعرفة أرصاد وتوقعات الطقس.

لتغيير الخارطة: اضغط على الأزرار الخضراء مع رمز الصليب الأسود للتكبير. على الزر الأخضر مع شرطة للتصغير، أو على الأسهم الخضراء للخرائط المجاورة.


METAR-TAF: